Time;durP1;ratioP1;P1;durP2;ratioP2;P2;SDS_P1;SDS_P2;PMS_P1;PMS_P2;Temp;Humidity;BMP_temperature;BMP_pressure;BME280_temperature;BME280_humidity;BME280_pressure;Samples;Min_cycle;Max_cycle;Signal;HPM_P1;HPM_P2
2023/02/02 00:01:21;;;;;;;20.48;3.38;;;5.80;99.90;;;5.27;100.00;98405.84;4964144;28;20057;-68
2023/02/02 00:03:49;;;;;;;27.35;4.07;;;5.80;99.90;;;5.20;100.00;98409.31;4961761;28;20362;-68
2023/02/02 00:06:22;;;;;;;29.65;4.15;;;5.80;99.90;;;5.21;100.00;98416.16;4965137;28;20055;-68
2023/02/02 00:08:49;;;;;;;21.95;4.32;;;5.80;99.90;;;5.21;100.00;98405.88;4964629;28;20122;-68
2023/02/02 00:11:17;;;;;;;25.73;4.57;;;5.90;99.90;;;5.26;100.00;98392.97;4961998;28;20097;-68
2023/02/02 00:13:45;;;;;;;22.83;3.85;;;5.90;99.90;;;5.20;100.00;98415.31;4964267;28;20517;-68
2023/02/02 00:16:20;;;;;;;18.58;3.85;;;5.90;99.90;;;5.26;100.00;98406.69;4963945;28;20118;-68
2023/02/02 00:18:48;;;;;;;21.67;3.80;;;5.90;99.90;;;5.23;100.00;98424.75;4962502;28;20482;-68
2023/02/02 00:21:15;;;;;;;24.15;4.15;;;5.90;99.90;;;5.20;100.00;98410.19;4978862;28;20426;-68
2023/02/02 00:23:42;;;;;;;18.40;3.47;;;5.90;99.90;;;5.18;100.00;98431.66;4963949;28;20043;-68
2023/02/02 00:26:09;;;;;;;17.30;3.33;;;5.90;99.90;;;5.36;100.00;98410.91;4961988;28;20046;-68
2023/02/02 00:28:37;;;;;;;22.05;3.75;;;5.90;99.90;;;5.26;100.00;98398.13;4964727;28;20054;-68
2023/02/02 00:31:04;;;;;;;25.20;4.93;;;5.90;99.90;;;5.18;100.00;98423.94;4963160;28;20062;-68
2023/02/02 00:33:31;;;;;;;32.33;4.25;;;5.90;99.90;;;5.30;100.00;98405.81;4962802;28;20173;-68
2023/02/02 00:35:58;;;;;;;27.83;4.57;;;5.90;99.90;;;5.22;100.00;98423.00;4962369;28;20668;-68
2023/02/02 00:38:24;;;;;;;28.80;4.32;;;5.80;99.90;;;5.17;100.00;98414.47;4980838;28;20050;-68
2023/02/02 00:40:51;;;;;;;28.98;4.43;;;5.90;99.90;;;5.24;100.00;98405.84;4964682;28;20047;-68
2023/02/02 00:43:18;;;;;;;24.98;4.00;;;5.90;99.90;;;5.22;100.00;98429.03;4964808;28;20058;-67
2023/02/02 00:45:46;;;;;;;21.27;3.65;;;5.80;99.90;;;5.20;100.00;98427.31;4960561;28;20565;-68
2023/02/02 00:48:13;;;;;;;25.58;4.47;;;5.80;99.90;;;5.11;100.00;98447.97;4963331;28;20101;-68
2023/02/02 00:50:40;;;;;;;22.98;3.60;;;5.70;99.90;;;5.04;100.00;98465.19;4963171;28;20604;-68
2023/02/02 00:53:07;;;;;;;26.95;2.90;;;5.70;99.90;;;5.19;100.00;98438.50;4978237;28;20134;-68
2023/02/02 00:55:34;;;;;;;33.42;4.80;;;5.70;99.90;;;5.14;100.00;98442.81;4964444;28;20061;-68
2023/02/02 00:58:01;;;;;;;26.40;3.63;;;5.70;99.90;;;5.15;100.00;98442.78;4963856;28;20246;-68
2023/02/02 01:00:28;;;;;;;22.10;4.32;;;5.70;99.90;;;5.20;100.00;98442.75;4963335;28;20061;-68
2023/02/02 01:02:56;;;;;;;25.42;4.22;;;5.70;99.90;;;5.10;100.00;98454.84;4962222;28;20054;-69
2023/02/02 01:05:23;;;;;;;19.98;3.63;;;5.80;99.90;;;5.18;100.00;98452.25;4962462;28;20056;-68
2023/02/02 01:07:50;;;;;;;22.58;3.97;;;5.70;99.90;;;5.26;100.00;98457.31;4963911;28;20513;-68
2023/02/02 01:10:18;;;;;;;28.48;4.43;;;5.70;99.90;;;5.12;100.00;98485.72;4959942;28;20394;-68
2023/02/02 01:12:45;;;;;;;22.65;4.05;;;5.70;99.90;;;5.32;100.00;98452.13;4960159;28;20054;-68
2023/02/02 01:15:13;;;;;;;26.83;5.28;;;5.70;99.90;;;5.08;100.00;98469.44;4960872;28;20059;-68
2023/02/02 01:17:40;;;;;;;26.38;4.10;;;5.70;99.90;;;5.17;100.00;98471.09;4946866;28;20077;-68
2023/02/02 01:20:11;;;;;;;25.35;4.80;;;5.80;99.90;;;5.17;100.00;98465.97;4964586;28;20126;-68
2023/02/02 01:22:38;;;;;;;27.35;3.83;;;5.80;99.90;;;5.16;100.00;98471.97;4960988;28;20134;-68
2023/02/02 01:25:05;;;;;;;26.17;4.05;;;5.80;99.90;;;5.18;100.00;98460.81;4959821;28;20055;-68
2023/02/02 01:27:32;;;;;;;23.83;3.80;;;5.80;99.90;;;5.14;100.00;98482.28;4970245;28;20081;-68
2023/02/02 01:29:59;;;;;;;32.17;4.35;;;5.80;99.90;;;5.13;100.00;98469.41;4953138;28;20070;-68
2023/02/02 01:32:26;;;;;;;25.23;4.25;;;5.80;99.90;;;5.20;100.00;98459.09;4952987;28;20049;-68
2023/02/02 01:34:53;;;;;;;23.50;4.03;;;5.80;99.90;;;5.15;100.00;98465.97;4950700;28;20062;-68
2023/02/02 01:37:24;;;;;;;22.30;3.92;;;5.80;99.90;;;5.18;100.00;98472.81;4963003;28;20517;-68
2023/02/02 01:39:51;;;;;;;25.60;3.63;;;5.80;99.90;;;5.14;100.00;98466.84;4959523;28;20050;-68
2023/02/02 01:42:22;;;;;;;21.15;3.72;;;5.80;99.90;;;5.17;100.00;98453.94;4959777;28;20054;-68
2023/02/02 01:45:16;;;;;;;19.27;3.53;;;5.90;99.90;;;5.25;100.00;98456.47;4963881;28;20082;-68
2023/02/02 01:47:53;;;;;;;19.92;3.78;;;5.90;99.90;;;5.15;100.00;98457.38;4978205;28;20053;-68
2023/02/02 01:50:25;;;;;;;20.60;3.33;;;5.80;99.90;;;5.15;100.00;98489.13;4959240;28;20055;-68
2023/02/02 01:52:56;;;;;;;24.50;3.58;;;5.80;99.90;;;5.15;100.00;98458.22;4959058;28;20054;-68
2023/02/02 01:55:27;;;;;;;23.02;3.65;;;5.90;99.90;;;5.26;100.00;98449.59;4962585;28;20066;-68
2023/02/02 01:58:04;;;;;;;26.27;4.20;;;5.80;99.90;;;5.17;100.00;98465.97;4956576;28;20054;-68
2023/02/02 02:00:31;;;;;;;19.80;4.40;;;5.70;99.90;;;5.26;100.00;98450.44;4946292;28;20046;-68
2023/02/02 02:03:07;;;;;;;22.92;3.60;;;5.70;99.90;;;5.14;100.00;98474.56;4958836;28;20047;-68
2023/02/02 02:06:04;;;;;;;23.35;3.75;;;5.80;99.90;;;5.14;100.00;98464.25;4959566;28;20584;-68
2023/02/02 02:08:54;;;;;;;21.83;3.53;;;5.80;99.90;;;5.26;100.00;98452.16;4955198;28;20047;-68
2023/02/02 02:11:23;;;;;;;31.10;3.83;;;5.90;99.90;;;5.10;100.00;98457.41;4974937;28;20050;-68
2023/02/02 02:16:43;;;;;;;26.70;4.78;;;5.90;99.90;;;5.24;100.00;98447.03;4960044;28;20043;-68
2023/02/02 02:26:32;;;;;;;;;;;5.90;99.90;;;5.18;100.00;98440.22;4959241;28;20051;-68
2023/02/02 02:26:32;;;;;;;30.30;4.35;;;5.90;99.90;;;5.15;100.00;98455.66;4959801;28;20046;-68
2023/02/02 02:29:31;;;;;;;27.58;4.18;;;5.90;99.90;;;5.20;100.00;98445.34;4960961;28;20478;-68
2023/02/02 02:32:17;;;;;;;25.55;4.85;;;5.90;99.90;;;5.21;100.00;98444.47;4960296;28;20413;-68
2023/02/02 02:35:01;;;;;;;20.08;2.85;;;5.90;99.90;;;5.24;100.00;98454.75;4962651;28;20506;-68
2023/02/02 02:37:51;;;;;;;19.80;3.22;;;5.90;99.90;;;5.29;100.00;98460.75;4982775;28;20046;-69
2023/02/02 02:40:36;;;;;;;23.02;3.88;;;5.90;99.90;;;5.30;100.00;98451.28;4964873;28;20421;-69
2023/02/02 02:43:26;;;;;;;19.85;4.00;;;5.90;99.90;;;5.44;100.00;98440.00;4967552;28;20059;-68
2023/02/02 02:45:54;;;;;;;23.95;4.13;;;5.90;99.90;;;5.29;100.00;98436.69;4963070;28;20050;-68
2023/02/02 02:48:21;;;;;;;21.05;4.75;;;5.80;99.90;;;5.27;100.00;98449.59;4951372;28;20129;-68
2023/02/02 02:50:48;;;;;;;24.23;3.25;;;5.90;99.90;;;5.26;100.00;98431.59;4966024;28;20070;-68
2023/02/02 02:53:22;;;;;;;22.92;3.97;;;6.00;99.90;;;5.33;100.00;98438.38;4962589;28;21007;-68
2023/02/02 02:56:08;;;;;;;15.82;2.75;;;6.00;99.90;;;5.37;100.00;98448.66;4968513;28;20054;-68
2023/02/02 02:58:54;;;;;;;19.88;2.95;;;6.00;99.90;;;5.37;100.00;98450.38;4978705;28;20089;-68
2023/02/02 03:01:39;;;;;;;27.55;3.63;;;5.90;99.90;;;5.28;100.00;98445.28;4959867;28;20061;-68
2023/02/02 03:04:27;;;;;;;12.60;3.30;;;5.90;99.90;;;5.29;100.00;98444.41;4951814;28;20059;-68
2023/02/02 03:07:12;;;;;;;20.63;3.47;;;5.80;99.90;;;5.27;100.00;98457.31;4975388;28;20058;-68
2023/02/02 03:09:42;;;;;;;22.35;3.78;;;5.80;99.90;;;5.22;100.00;98465.06;4962903;28;20409;-68
2023/02/02 03:12:09;;;;;;;21.17;4.25;;;5.80;99.90;;;5.27;100.00;98439.31;4963139;28;20055;-68
2023/02/02 03:14:38;;;;;;;23.77;3.40;;;5.70;99.90;;;5.30;100.00;98462.44;4966702;28;20513;-68
2023/02/02 03:17:05;;;;;;;24.67;4.40;;;5.70;99.90;;;5.38;100.00;98460.66;4961251;28;20054;-68
2023/02/02 03:19:32;;;;;;;16.63;2.88;;;5.70;99.90;;;5.37;100.00;98460.66;4965260;28;20051;-68
2023/02/02 03:21:59;;;;;;;27.10;4.45;;;5.70;99.90;;;5.32;100.00;98455.56;4960920;28;20050;-68
2023/02/02 03:24:26;;;;;;;23.23;3.10;;;5.80;99.90;;;5.31;100.00;98473.56;4957595;28;20058;-68
2023/02/02 03:26:52;;;;;;;18.25;3.97;;;5.90;99.90;;;5.32;100.00;98452.97;4962007;28;20061;-68
2023/02/02 03:29:20;;;;;;;23.10;3.40;;;6.00;99.90;;;5.34;100.00;98448.69;4962514;28;20079;-68
2023/02/02 03:31:47;;;;;;;14.93;2.65;;;5.90;99.90;;;5.39;100.00;98454.63;4959369;28;20051;-68
2023/02/02 03:34:14;;;;;;;20.23;4.20;;;5.90;99.90;;;5.43;100.00;98451.19;4960862;28;20047;-68
2023/02/02 03:36:41;;;;;;;17.23;3.13;;;6.00;99.90;;;5.47;100.00;98433.13;4958387;28;20047;-68
2023/02/02 03:39:08;;;;;;;23.58;4.13;;;5.90;99.90;;;5.35;100.00;98437.50;4963634;28;20047;-68
2023/02/02 03:41:35;;;;;;;16.17;3.08;;;5.90;99.90;;;5.37;100.00;98445.22;4962455;28;20047;-68
2023/02/02 03:44:02;;;;;;;27.02;3.40;;;6.00;99.90;;;5.33;100.00;98439.22;4961261;28;20055;-68
2023/02/02 03:46:29;;;;;;;15.95;3.13;;;6.00;99.90;;;5.40;100.00;98438.31;4961836;28;20055;-68
2023/02/02 03:48:56;;;;;;;15.77;2.83;;;5.90;99.90;;;5.45;100.00;98428.84;4961598;28;20082;-68
2023/02/02 03:51:23;;;;;;;18.70;4.15;;;5.90;99.90;;;5.45;100.00;98428.84;4961285;28;20158;-68
2023/02/02 03:53:50;;;;;;;23.77;3.97;;;5.80;99.90;;;5.24;100.00;98441.88;4964798;28;20050;-69
2023/02/02 03:56:19;;;;;;;19.48;3.17;;;5.90;99.90;;;5.23;100.00;98453.91;4963846;28;20053;-69
2023/02/02 03:58:46;;;;;;;18.27;3.10;;;5.80;99.90;;;5.25;100.00;98446.19;4963621;28;20517;-68
2023/02/02 04:01:14;;;;;;;22.42;3.80;;;5.80;99.90;;;5.29;100.00;98450.44;4960057;28;20728;-68
2023/02/02 04:03:41;;;;;;;18.95;3.78;;;5.80;99.90;;;5.23;100.00;98464.19;4961700;28;20061;-68
2023/02/02 04:06:08;;;;;;;19.58;3.72;;;5.80;99.90;;;5.32;100.00;98477.88;4965201;28;20069;-68
2023/02/02 04:08:35;;;;;;;13.98;2.75;;;5.90;99.90;;;5.28;100.00;98471.03;4981345;28;20078;-68
2023/02/02 04:11:02;;;;;;;22.55;3.35;;;5.80;99.90;;;5.34;100.00;98464.13;4962918;28;20042;-68
2023/02/02 04:13:30;;;;;;;16.60;3.80;;;5.80;99.90;;;5.31;100.00;98491.59;4959757;28;20038;-68
2023/02/02 04:16:00;;;;;;;18.35;3.00;;;5.80;99.90;;;5.29;100.00;98473.63;4962184;28;20043;-68
2023/02/02 04:18:28;;;;;;;12.30;3.35;;;5.80;99.90;;;5.31;100.00;98483.88;4961986;28;20125;-68
2023/02/02 04:20:59;;;;;;;17.73;2.83;;;5.80;99.90;;;5.14;100.00;98486.56;4962436;28;20047;-68
2023/02/02 04:23:28;;;;;;;16.67;3.05;;;5.80;99.90;;;5.26;100.00;98485.63;4961216;28;20481;-68
2023/02/02 04:25:56;;;;;;;23.70;4.20;;;5.90;99.90;;;5.30;100.00;98477.03;4964915;28;20051;-68
2023/02/02 04:28:24;;;;;;;21.55;3.88;;;5.90;99.90;;;5.19;100.00;98498.53;4977248;28;20059;-68
2023/02/02 04:30:53;;;;;;;19.50;3.78;;;5.80;99.90;;;5.18;100.00;98491.69;4960150;28;20053;-68
2023/02/02 04:33:22;;;;;;;22.38;3.85;;;5.80;99.90;;;5.20;100.00;98507.97;4974893;28;20561;-68
2023/02/02 04:35:49;;;;;;;19.17;4.22;;;5.80;99.90;;;5.30;100.00;98502.78;4961409;28;20157;-69
2023/02/02 04:38:17;;;;;;;20.08;3.78;;;5.70;99.90;;;5.20;100.00;98519.97;4963331;28;20511;-68
2023/02/02 04:40:46;;;;;;;12.70;3.80;;;5.80;99.90;;;5.30;100.00;98518.22;4962995;28;20046;-68
2023/02/02 04:43:14;;;;;;;19.65;4.03;;;5.80;99.90;;;5.19;100.00;98531.16;4959362;28;20059;-68
2023/02/02 04:45:41;;;;;;;17.50;3.35;;;5.80;99.90;;;5.13;100.00;98526.03;4956726;28;20070;-68
2023/02/02 04:48:08;;;;;;;22.75;3.60;;;5.80;99.90;;;5.11;100.00;98540.63;4956648;28;20043;-69
2023/02/02 04:50:35;;;;;;;19.33;3.92;;;5.80;99.90;;;5.10;100.00;98537.19;4959025;28;20051;-69
2023/02/02 04:53:04;;;;;;;22.98;4.85;;;5.80;99.90;;;5.29;100.00;98529.38;4965482;28;20379;-69
2023/02/02 04:55:36;;;;;;;17.17;3.05;;;5.80;99.90;;;5.23;100.00;98531.13;4962135;28;20043;-68
2023/02/02 04:58:04;;;;;;;18.52;3.25;;;5.70;99.90;;;5.27;100.00;98525.94;4979830;28;20522;-68
2023/02/02 05:00:32;;;;;;;23.80;4.40;;;5.60;99.90;;;5.24;100.00;98529.41;4956315;28;20071;-68
2023/02/02 05:02:59;;;;;;;17.23;3.92;;;5.60;99.90;;;5.22;100.00;98537.16;4959582;28;20439;-69
2023/02/02 05:05:26;;;;;;;23.38;3.88;;;5.60;99.90;;;5.21;100.00;98544.88;4961293;28;20065;-68
2023/02/02 05:07:53;;;;;;;16.27;3.72;;;5.60;99.90;;;5.21;100.00;98530.28;4961772;28;20050;-68
2023/02/02 05:10:20;;;;;;;19.05;4.45;;;5.60;99.90;;;5.27;100.00;98543.97;4958152;28;20068;-68
2023/02/02 05:12:47;;;;;;;20.10;2.95;;;5.60;99.90;;;5.14;100.00;98544.03;4975064;28;20370;-68
2023/02/02 05:15:14;;;;;;;22.10;3.88;;;5.60;99.90;;;5.16;100.00;98536.31;4960748;28;20061;-68
2023/02/02 05:17:42;;;;;;;20.15;3.80;;;5.70;99.90;;;5.20;100.00;98545.72;4962612;28;20085;-68
2023/02/02 05:20:10;;;;;;;26.33;3.75;;;5.70;99.90;;;5.08;100.00;98558.66;4959398;28;20039;-69
2023/02/02 05:22:38;;;;;;;22.35;3.67;;;5.70;99.90;;;5.15;100.00;98562.91;4958149;28;20043;-68
2023/02/02 05:25:06;;;;;;;14.27;2.95;;;5.70;99.90;;;5.17;100.00;98551.72;4975710;28;20043;-68
2023/02/02 05:27:33;;;;;;;19.48;4.15;;;5.70;99.90;;;5.28;100.00;98553.41;4947598;28;20521;-68
2023/02/02 05:30:01;;;;;;;22.92;3.67;;;5.80;99.90;;;5.33;100.00;98552.50;4960248;28;20061;-68
2023/02/02 05:32:28;;;;;;;15.85;3.67;;;5.70;99.90;;;5.27;100.00;98564.56;4957606;28;20159;-69
2023/02/02 05:34:55;;;;;;;24.55;4.07;;;5.70;99.90;;;5.18;100.00;98563.75;4955655;28;20057;-69
2023/02/02 05:37:22;;;;;;;22.10;3.97;;;5.70;99.90;;;5.20;100.00;98572.31;4958872;28;20079;-68
2023/02/02 05:39:51;;;;;;;18.45;3.78;;;5.80;99.90;;;5.29;100.00;98553.41;4962836;28;20043;-68
2023/02/02 05:42:18;;;;;;;17.95;4.25;;;5.80;99.90;;;5.24;100.00;98549.97;4962250;28;20054;-68
2023/02/02 05:44:45;;;;;;;17.25;3.38;;;5.70;99.90;;;5.27;100.00;98560.28;4957606;28;20366;-68
2023/02/02 05:47:12;;;;;;;29.88;4.63;;;5.80;99.90;;;5.23;100.00;98556.00;4956835;28;20062;-68
2023/02/02 05:49:38;;;;;;;19.52;4.60;;;5.70;99.90;;;5.20;100.00;98566.31;4959120;28;20863;-68
2023/02/02 05:52:06;;;;;;;19.90;4.22;;;5.70;99.90;;;5.29;100.00;98565.41;4960566;28;20145;-68
2023/02/02 05:54:33;;;;;;;25.98;5.05;;;5.80;99.90;;;5.20;100.00;98580.06;4959106;28;20105;-68
2023/02/02 05:57:01;;;;;;;17.77;4.15;;;5.80;99.90;;;5.28;100.00;98582.56;4962660;28;20093;-68
2023/02/02 05:59:28;;;;;;;23.73;5.03;;;5.80;99.90;;;5.34;100.00;98561.97;4964542;28;20580;-68
2023/02/02 06:01:55;;;;;;;21.10;3.70;;;5.80;99.90;;;5.26;100.00;98563.72;4957210;28;20039;-68
2023/02/02 06:04:22;;;;;;;22.55;3.63;;;5.70;99.90;;;5.35;100.00;98573.09;4962574;28;20138;-68
2023/02/02 06:06:49;;;;;;;17.48;4.10;;;5.80;99.90;;;5.33;100.00;98577.41;4957777;28;20080;-69
2023/02/02 06:09:16;;;;;;;26.77;4.72;;;5.80;99.90;;;5.32;100.00;98570.56;4959924;28;20059;-68
2023/02/02 06:11:44;;;;;;;21.33;4.72;;;5.80;99.90;;;5.35;100.00;98589.41;4960070;28;20052;-68
2023/02/02 06:14:11;;;;;;;24.95;4.28;;;5.90;99.90;;;5.28;100.00;98590.28;4973054;28;20078;-68
2023/02/02 06:16:41;;;;;;;21.60;4.78;;;5.80;99.90;;;5.31;100.00;98581.69;4959714;28;20047;-69
2023/02/02 06:19:08;;;;;;;33.45;6.38;;;5.90;99.90;;;5.25;100.00;98582.59;4970857;28;20129;-68
2023/02/02 06:21:35;;;;;;;21.13;4.22;;;5.90;99.90;;;5.28;100.00;98586.88;4960361;28;20047;-68
2023/02/02 06:24:02;;;;;;;21.58;4.03;;;5.80;99.90;;;5.27;100.00;98586.03;4958751;28;20051;-68
2023/02/02 06:26:29;;;;;;;17.13;4.20;;;5.90;99.90;;;5.40;100.00;98561.06;4957826;28;20058;-68
2023/02/02 06:28:56;;;;;;;23.27;4.53;;;5.80;99.90;;;5.36;100.00;98564.50;4961376;28;20134;-68
2023/02/02 06:31:23;;;;;;;24.25;4.13;;;5.80;99.90;;;5.22;100.00;98587.75;4959023;28;20066;-69
2023/02/02 06:33:56;;;;;;;27.50;4.22;;;5.80;99.90;;;5.26;100.00;98586.03;4960205;28;20380;-68
2023/02/02 06:36:26;;;;;;;18.98;3.92;;;5.90;99.90;;;5.29;100.00;98581.72;4965423;28;20051;-69
2023/02/02 06:38:56;;;;;;;23.73;4.13;;;5.90;99.90;;;5.27;100.00;98585.16;4976771;28;20059;-68
2023/02/02 06:41:23;;;;;;;22.52;4.35;;;5.90;99.90;;;5.33;100.00;98580.81;4974062;28;20062;-68
2023/02/02 06:43:51;;;;;;;23.63;3.75;;;5.90;99.90;;;5.33;100.00;98585.13;4956852;28;20067;-68
2023/02/02 06:46:18;;;;;;;35.45;4.97;;;5.80;99.90;;;5.21;100.00;98588.63;4962123;28;20054;-68
2023/02/02 06:48:45;;;;;;;21.52;4.65;;;5.80;99.90;;;5.15;100.00;98589.50;4959917;28;20039;-69
2023/02/02 06:51:12;;;;;;;20.02;3.45;;;5.80;99.90;;;5.29;100.00;98580.84;4957116;28;20102;-68
2023/02/02 06:53:39;;;;;;;25.42;3.92;;;5.80;99.90;;;5.25;100.00;98587.75;4961526;28;20519;-68
2023/02/02 06:56:10;;;;;;;25.45;4.40;;;5.80;99.90;;;5.20;100.00;98572.31;4954266;28;20054;-68
2023/02/02 06:58:38;;;;;;;26.02;4.45;;;5.80;99.90;;;5.20;100.00;98582.63;4948582;28;20054;-68
2023/02/02 07:01:09;;;;;;;22.50;3.88;;;5.90;99.90;;;5.24;100.00;98592.06;4960424;28;20046;-68
2023/02/02 07:03:37;;;;;;;37.63;4.05;;;5.90;99.90;;;5.28;100.00;98590.28;4977531;28;20501;-68
2023/02/02 07:06:17;;;;;;;21.25;4.22;;;5.90;99.90;;;5.31;100.00;98555.97;4958898;28;20051;-68
2023/02/02 07:08:45;;;;;;;23.27;4.32;;;5.90;99.90;;;5.22;100.00;98552.59;4961390;28;20060;-69
2023/02/02 07:11:28;;;;;;;22.77;5.13;;;5.90;99.90;;;5.28;100.00;98555.97;4976511;28;20160;-68
2023/02/02 07:13:55;;;;;;;24.50;3.47;;;5.80;99.90;;;5.19;100.00;98562.88;4965567;28;20049;-68
2023/02/02 07:16:22;;;;;;;19.95;3.95;;;5.80;99.90;;;5.34;100.00;98574.81;4964457;28;20078;-68
2023/02/02 07:18:49;;;;;;;23.38;3.85;;;5.80;99.90;;;5.28;100.00;98580.00;4958499;28;20150;-68
2023/02/02 07:21:24;;;;;;;24.58;6.45;;;5.90;99.90;;;5.28;100.00;98568.84;4959958;28;20513;-68
2023/02/02 07:23:51;;;;;;;16.95;3.35;;;5.80;99.90;;;5.29;100.00;98561.13;4962006;28;20129;-69
2023/02/02 07:26:19;;;;;;;20.38;3.75;;;5.70;99.90;;;5.30;100.00;98549.97;4964814;28;20065;-68
2023/02/02 07:28:46;;;;;;;18.35;5.30;;;5.80;99.90;;;5.19;100.00;98552.59;4965453;28;20150;-68
2023/02/02 07:31:20;;;;;;;22.67;4.75;;;5.80;99.90;;;5.28;100.00;98566.28;4967050;28;20068;-68
2023/02/02 07:33:48;;;;;;;20.50;3.53;;;5.70;99.90;;;5.35;100.00;98553.34;4967852;28;20179;-68
2023/02/02 07:36:19;;;;;;;29.27;6.07;;;5.70;99.90;;;5.33;100.00;98569.69;4965162;28;20071;-68
2023/02/02 07:38:47;;;;;;;24.80;4.05;;;5.70;99.90;;;5.34;100.00;98576.56;4974740;28;20141;-69
2023/02/02 07:41:15;;;;;;;24.38;4.18;;;5.80;99.90;;;5.38;100.00;98562.78;4963081;28;20128;-68
2023/02/02 07:43:48;;;;;;;23.13;4.95;;;5.90;99.90;;;5.30;100.00;98580.84;4961774;28;20115;-68
2023/02/02 07:46:17;;;;;;;20.73;5.35;;;6.00;99.90;;;5.43;100.00;98584.22;4963347;28;20055;-67
2023/02/02 07:48:44;;;;;;;22.50;5.88;;;6.00;99.90;;;5.36;100.00;98598.84;4956062;28;20046;-68
2023/02/02 07:51:15;;;;;;;17.90;4.47;;;6.00;99.90;;;5.39;100.00;98603.13;4959366;28;20046;-68
2023/02/02 07:53:48;;;;;;;22.38;4.88;;;6.00;99.90;;;5.42;100.00;98603.94;4964499;28;20051;-69
2023/02/02 07:56:21;;;;;;;26.90;5.10;;;6.00;99.90;;;5.38;100.00;98609.13;4964793;28;20183;-68
2023/02/02 07:58:52;;;;;;;18.92;5.40;;;6.10;99.90;;;5.36;100.00;98592.81;4964861;28;20130;-68
2023/02/02 08:01:21;;;;;;;20.60;4.57;;;6.20;99.90;;;5.41;100.00;98614.28;4966671;28;20422;-68
2023/02/02 08:03:49;;;;;;;24.10;4.78;;;6.10;99.90;;;5.36;100.00;98622.03;4965237;28;20622;-68
2023/02/02 08:06:36;;;;;;;18.40;4.03;;;6.20;99.90;;;5.50;100.00;98623.66;4964206;28;20063;-68
2023/02/02 08:09:09;;;;;;;21.27;4.00;;;6.20;99.90;;;5.42;100.00;98611.66;4961983;28;20053;-68
2023/02/02 08:11:37;;;;;;;19.17;3.80;;;6.30;99.90;;;5.50;100.00;98624.53;4962704;28;20058;-68
2023/02/02 08:14:05;;;;;;;21.50;3.92;;;6.30;99.90;;;5.59;100.00;98608.16;4960144;28;20051;-68
2023/02/02 08:16:34;;;;;;;16.55;4.18;;;6.40;99.90;;;5.63;100.00;98576.34;4962930;28;20039;-68
2023/02/02 08:19:05;;;;;;;20.38;3.72;;;6.40;99.90;;;5.62;100.00;98595.25;4960518;28;20062;-68
2023/02/02 08:21:33;;;;;;;26.75;3.80;;;6.40;99.90;;;5.64;100.00;98584.06;4963091;28;20105;-68
2023/02/02 08:24:01;;;;;;;20.05;3.47;;;6.50;99.90;;;5.73;100.00;98580.59;4962666;28;20045;-68
2023/02/02 08:26:30;;;;;;;18.95;4.63;;;6.40;99.90;;;5.63;100.00;98602.97;4961926;28;20513;-68
2023/02/02 08:29:01;;;;;;;18.58;3.22;;;6.50;99.90;;;5.69;100.00;98565.16;4947310;28;20054;-68
2023/02/02 08:31:38;;;;;;;18.92;3.65;;;6.50;99.90;;;5.58;100.00;98578.97;4974466;28;20098;-68
2023/02/02 08:34:05;;;;;;;25.17;3.35;;;6.50;99.90;;;5.70;100.00;98590.88;4955562;28;20061;-68
2023/02/02 08:36:34;;;;;;;18.10;3.30;;;6.50;99.90;;;5.70;100.00;98587.47;4961293;28;20057;-68
2023/02/02 08:39:06;;;;;;;18.92;3.05;;;6.50;99.90;;;5.71;100.00;98558.28;4961484;28;20047;-69
2023/02/02 08:41:33;;;;;;;10.93;2.10;;;6.50;99.90;;;5.75;100.00;98572.84;4979083;28;20157;-68
2023/02/02 08:44:04;;;;;;;24.90;3.90;;;6.40;99.90;;;5.67;100.00;98565.16;4958732;28;20050;-68
2023/02/02 08:46:31;;;;;;;12.27;2.72;;;6.40;99.90;;;5.61;100.00;98565.19;4966318;28;20094;-68
2023/02/02 08:48:58;;;;;;;14.98;3.38;;;6.40;99.90;;;5.68;100.00;98584.94;4956264;28;20069;-68
2023/02/02 08:51:25;;;;;;;14.65;2.92;;;6.30;99.90;;;5.58;100.00;98563.50;4957860;28;20051;-68
2023/02/02 08:53:52;;;;;;;16.40;2.55;;;6.20;99.90;;;5.49;100.00;98621.94;4958671;28;20057;-68
2023/02/02 08:56:21;;;;;;;13.70;2.72;;;6.20;99.90;;;5.53;100.00;98583.28;4963801;28;20141;-68
2023/02/02 08:58:54;;;;;;;21.25;2.55;;;6.10;99.90;;;5.51;100.00;98599.63;4965273;28;20073;-68
2023/02/02 09:01:24;;;;;;;13.15;2.47;;;6.00;99.90;;;5.40;100.00;98597.09;4961250;28;20074;-69
2023/02/02 09:04:07;;;;;;;11.82;2.25;;;5.90;99.90;;;5.47;100.00;98590.19;4961069;28;20138;-68
2023/02/02 09:06:38;;;;;;;14.98;2.72;;;5.90;99.90;;;5.49;100.00;98588.47;4965031;28;20105;-69
2023/02/02 09:09:09;;;;;;;21.15;2.22;;;5.90;99.90;;;5.49;100.00;98622.78;4958514;28;20054;-68
2023/02/02 09:11:37;;;;;;;12.48;2.35;;;5.90;99.90;;;5.58;100.00;98611.59;4963016;28;20061;-68
2023/02/02 09:14:05;;;;;;;15.52;2.45;;;5.80;99.90;;;5.72;100.00;98619.22;4958826;28;20047;-68
2023/02/02 09:16:34;;;;;;;16.10;2.95;;;5.90;99.90;;;5.57;100.00;98639.06;4959420;28;20481;-68
2023/02/02 09:19:02;;;;;;;11.02;2.22;;;6.00;99.90;;;5.72;100.00;98581.44;4961362;28;20134;-69
2023/02/02 09:21:29;;;;;;;22.77;4.03;;;6.20;99.90;;;5.70;100.00;98590.03;4964484;28;20047;-68
2023/02/02 09:23:56;;;;;;;18.48;3.45;;;6.30;99.90;;;5.82;100.00;98592.56;4966656;28;20066;-68
2023/02/02 09:26:28;;;;;;;16.08;2.75;;;6.40;99.90;;;5.89;100.00;98581.34;4962849;28;20075;-69
2023/02/02 09:29:02;;;;;;;20.33;3.13;;;6.50;99.90;;;6.07;100.00;98580.38;4976535;28;20093;-68
2023/02/02 09:31:33;;;;;;;20.42;3.00;;;6.70;99.90;;;5.80;100.00;98584.81;4973237;28;20055;-71
2023/02/02 09:34:13;;;;;;;17.55;2.58;;;6.80;99.90;;;5.91;100.00;98607.06;4958196;28;20047;-70
2023/02/02 09:36:41;;;;;;;14.32;2.72;;;6.90;99.90;;;6.32;100.00;98591.31;4963017;28;20065;-70
2023/02/02 09:39:15;;;;;;;17.52;2.75;;;7.00;99.90;;;5.88;100.00;98620.81;4955984;28;20143;-70
2023/02/02 09:41:54;;;;;;;16.20;3.72;;;7.00;99.90;;;5.91;100.00;98618.25;4958246;28;20134;-71
2023/02/02 09:44:44;;;;;;;17.63;3.08;;;7.00;99.90;;;6.11;100.00;98617.25;4960682;28;20059;-70
2023/02/02 09:47:24;;;;;;;15.70;3.25;;;7.00;99.90;;;5.91;100.00;98625.97;4958811;28;20190;-70
2023/02/02 09:50:08;;;;;;;20.20;3.45;;;7.10;99.90;;;5.93;100.00;98639.72;4958258;28;20166;-71
2023/02/02 09:52:48;;;;;;;17.77;3.35;;;6.90;99.90;;;5.90;100.00;98608.78;4960681;28;20129;-70
2023/02/02 09:55:41;;;;;;;15.07;3.55;;;6.80;99.90;;;5.90;100.00;98623.41;4959163;28;20718;-69
2023/02/02 09:58:30;;;;;;;21.35;4.22;;;6.80;99.90;;;5.92;100.00;98645.72;4962522;28;20109;-71
2023/02/02 10:01:24;;;;;;;22.30;3.58;;;6.70;99.90;;;5.92;100.00;98638.00;4961868;28;20058;-70
2023/02/02 10:04:04;;;;;;;15.88;3.83;;;6.70;99.90;;;5.98;100.00;98638.00;4962034;28;20055;-70
2023/02/02 10:06:42;;;;;;;20.13;2.97;;;6.80;99.90;;;5.78;100.00;98676.72;4980011;28;20061;-70
2023/02/02 10:09:47;;;;;;;19.83;3.00;;;6.90;99.90;;;5.85;100.00;98660.34;4961855;28;20046;-70
2023/02/02 10:12:32;;;;;;;20.30;3.05;;;6.90;99.90;;;5.98;100.00;98670.63;4954698;28;20503;-70
2023/02/02 10:15:11;;;;;;;16.30;2.88;;;7.00;99.90;;;5.98;100.00;98657.75;4950138;28;20055;-71
2023/02/02 10:18:10;;;;;;;17.10;3.00;;;7.10;99.90;;;5.96;100.00;98644.88;4942038;28;20063;-70
2023/02/02 10:20:56;;;;;;;18.08;3.00;;;7.20;99.90;;;6.02;100.00;98655.16;4969403;28;20516;-70
2023/02/02 10:23:40;;;;;;;12.95;2.70;;;7.10;99.90;;;6.17;100.00;98638.69;4956460;28;20150;-70
2023/02/02 10:26:33;;;;;;;23.48;3.50;;;7.00;99.90;;;5.90;100.00;98641.44;4971796;28;20134;-71
2023/02/02 10:29:39;;;;;;;24.10;3.35;;;7.00;99.90;;;5.98;100.00;98631.97;4954180;28;20153;-71
2023/02/02 10:32:33;;;;;;;18.40;3.08;;;6.90;99.90;;;5.86;100.00;98648.31;4954772;28;20081;-70
2023/02/02 10:35:58;;;;;;;13.70;3.15;;;6.80;99.90;;;5.90;100.00;98625.97;4951489;28;20142;-70
2023/02/02 10:38:48;;;;;;;11.05;2.40;;;6.90;99.90;;;5.98;100.00;98650.03;4957556;28;20146;-70
2023/02/02 10:41:40;;;;;;;15.93;2.47;;;6.80;99.90;;;6.00;100.00;98650.88;4955151;28;20066;-71
2023/02/02 10:44:33;;;;;;;15.65;2.15;;;6.80;99.90;;;5.93;100.00;98654.28;4960605;28;20050;-70
2023/02/02 10:47:07;;;;;;;15.43;2.58;;;6.80;99.90;;;6.10;100.00;98644.78;4956856;28;20059;-71